Pagrindinis puslapis
METAR-TAF:

METAR-TAF

Oro uostai :

Luangprabangas, Laosas

platuma: 19-53N, ilguma: 102-08E, Aukštis: 305 m

Dabartinis oras

Ataskaita buvo paskelbta 12 minutes, ne 00:00 UTC
Ramus vėjas
Temperatūra 25°C
Drėgmė 94%
Slėgis 1008 hPa
Matomumas: 2000 m
Išsisklaidę debesys ne aukštis 600 ft
Su prošvaistėmis ne aukštis 8000 ft
rūkana

METAR: VLLB 260000Z 00000KT 2000 BR SCT006 BKN080 25/24 Q1008 NOSIG

Laikas: 07:12 (00:12 UTC)

Prognozė

Ataskaita buvo paskelbta 1 valandą ir 12 minutes, ne 23:00 UTC
Prognozė galioja nuo 26 metu 00 UTC su 26 metu 24 UTC
Vėjas 4 kt iš Pietvakarių
Matomumas 10 km arba daugiau
Išsisklaidę debesys ne aukštis 1700 ft
Išsisklaidę debesys ne aukštis 6000 ft

TAF: VLLB 252300Z 2600/2624 22004KT 9999 SCT017 SCT060

Orai ataskaitas ir orų prognozės (METAR, TAF).

turimą stotys yra geltonos ir raudonos taškus žemėlapyje.

Perkelti pele per norėdami pamatyti stoties vardą.

Tada spustelėkite, norėdami matyti oro stebėjimo ir prognozės.

Norėdami pakeisti žemėlapį: spustelėkite ant žalios mygtukų su juodo kryžiaus žemyn,; žalią mygtuką su brūkšneliu, jei norite nutolinti; arba žalių rodyklių gretimoms žemėlapius.


METAR-TAF: